createdAt,value
2019-06-26T00:03:55.961Z,6.78
2019-06-26T00:08:59.708Z,7.05
2019-06-26T00:14:03.527Z,7.30
2019-06-26T00:19:07.374Z,7.33
2019-06-26T00:24:11.151Z,7.28
2019-06-26T00:29:15.107Z,7.00
2019-06-26T00:34:18.848Z,6.95
2019-06-26T00:39:22.622Z,7.62
2019-06-26T00:44:26.334Z,6.97
2019-06-26T00:49:30.026Z,7.72
2019-06-26T00:54:33.722Z,7.60
2019-06-26T00:59:37.466Z,7.03
2019-06-26T01:04:43.714Z,8.05
2019-06-26T01:09:47.541Z,7.97
2019-06-26T01:14:51.236Z,7.25
2019-06-26T01:19:55.309Z,7.72
2019-06-26T01:24:59.064Z,7.62
2019-06-26T01:30:02.829Z,8.70
2019-06-26T01:35:06.785Z,7.65
2019-06-26T01:40:11.082Z,8.50
2019-06-26T01:45:15.165Z,7.78
2019-06-26T01:50:18.951Z,7.97
2019-06-26T01:55:22.852Z,9.03
2019-06-26T02:00:27.013Z,8.68
2019-06-26T02:05:30.843Z,8.03
2019-06-26T02:10:34.570Z,8.85
2019-06-26T02:15:38.604Z,8.48
2019-06-26T02:20:42.594Z,8.15
2019-06-26T02:25:46.332Z,8.68
2019-06-26T02:30:50.155Z,8.88
2019-06-26T02:35:53.902Z,8.70
2019-06-26T02:40:58.098Z,8.28
2019-06-26T02:46:01.887Z,9.23
2019-06-26T02:51:05.770Z,9.00
2019-06-26T02:56:09.571Z,9.43
2019-06-26T03:01:13.345Z,8.95
2019-06-26T03:06:17.022Z,9.50
2019-06-26T03:11:20.961Z,9.00
2019-06-26T03:16:24.696Z,9.00
2019-06-26T03:21:28.438Z,9.55
2019-06-26T03:26:32.174Z,10.65
2019-06-26T03:31:36.091Z,9.40
2019-06-26T03:36:39.889Z,9.88
2019-06-26T03:41:43.605Z,8.78
2019-06-26T03:46:47.554Z,9.40
2019-06-26T03:51:51.278Z,9.50
2019-06-26T03:56:55.026Z,10.40
2019-06-26T04:01:59.013Z,9.63
2019-06-26T04:07:02.732Z,9.70
2019-06-26T04:12:06.510Z,10.28
2019-06-26T04:17:10.274Z,9.95
2019-06-26T04:22:13.973Z,9.48
2019-06-26T04:27:17.766Z,9.80
2019-06-26T04:32:21.526Z,9.80
2019-06-26T04:37:25.461Z,9.98
2019-06-26T04:42:29.252Z,9.35
2019-06-26T04:47:32.934Z,10.10
2019-06-26T04:52:36.642Z,9.88
2019-06-26T04:57:40.443Z,9.70
2019-06-26T05:02:44.169Z,10.15
2019-06-26T05:07:47.929Z,10.28
2019-06-26T05:12:51.637Z,9.43
2019-06-26T05:17:55.310Z,10.28
2019-06-26T05:22:58.996Z,9.85
2019-06-26T05:28:02.702Z,9.60
2019-06-26T05:33:06.698Z,9.88
2019-06-26T05:38:10.421Z,10.63
2019-06-26T05:43:14.242Z,9.53
2019-06-26T05:48:18.165Z,9.98
2019-06-26T05:53:21.882Z,9.88
2019-06-26T05:58:25.605Z,10.15
2019-06-26T06:03:29.331Z,9.58
2019-06-26T06:08:33.070Z,9.60
2019-06-26T06:13:37.240Z,9.63
2019-06-26T06:18:40.956Z,9.68
2019-06-26T06:23:44.652Z,9.78
2019-06-26T06:28:48.385Z,9.55
2019-06-26T06:33:52.152Z,9.33
2019-06-26T06:38:55.859Z,8.98
2019-06-26T06:43:59.626Z,8.53
2019-06-26T06:49:03.389Z,8.95
2019-06-26T06:54:07.573Z,8.65
2019-06-26T06:59:11.258Z,9.20
2019-06-26T07:04:15.192Z,9.00
2019-06-26T07:09:18.856Z,8.35
2019-06-26T07:14:22.555Z,8.40
2019-06-26T07:19:26.265Z,8.10
2019-06-26T07:24:29.967Z,8.48
2019-06-26T07:29:33.675Z,8.88
2019-06-26T07:34:37.516Z,8.25
2019-06-26T07:39:41.264Z,8.30
2019-06-26T07:44:45.005Z,7.60
2019-06-26T07:49:48.790Z,7.25
2019-06-26T07:54:52.630Z,6.55
2019-06-26T07:59:56.340Z,6.80
2019-06-26T08:05:00.018Z,6.42
2019-06-26T08:10:04.405Z,4.70
2019-06-26T08:15:08.637Z,4.87
2019-06-26T08:20:14.617Z,5.08
2019-06-26T08:25:20.211Z,4.67
2019-06-26T08:30:24.654Z,4.50
2019-06-26T08:35:28.579Z,4.70
2019-06-26T08:40:32.543Z,4.33
2019-06-26T08:45:36.328Z,4.25
2019-06-26T08:50:40.148Z,3.98
2019-06-26T08:55:43.932Z,4.30
2019-06-26T09:00:47.640Z,4.40
2019-06-26T09:05:51.350Z,4.45
2019-06-26T09:10:55.089Z,4.33
2019-06-26T09:15:58.738Z,4.78
2019-06-26T09:21:02.894Z,4.20
2019-06-26T09:26:06.773Z,4.00
2019-06-26T09:31:10.767Z,4.78
2019-06-26T09:36:14.545Z,4.75
2019-06-26T09:41:18.233Z,3.80
2019-06-26T09:46:22.078Z,3.67
2019-06-26T09:51:26.069Z,4.42
2019-06-26T09:56:29.724Z,3.47
2019-06-26T10:01:33.790Z,3.45
2019-06-26T10:06:37.480Z,3.80
2019-06-26T10:11:41.389Z,3.22
2019-06-26T10:16:45.085Z,3.50
2019-06-26T10:21:48.779Z,3.52
2019-06-26T10:26:52.709Z,3.67
2019-06-26T10:31:56.402Z,3.92
2019-06-26T10:37:01.519Z,3.52
2019-06-26T10:42:05.433Z,3.25
2019-06-26T10:47:09.336Z,3.60
2019-06-26T10:52:13.151Z,3.95
2019-06-26T10:57:17.088Z,3.40
2019-06-26T11:02:21.116Z,3.50
2019-06-26T11:07:24.914Z,3.17
2019-06-26T11:12:28.669Z,3.80
2019-06-26T11:17:32.362Z,3.42
2019-06-26T11:22:36.257Z,3.00
2019-06-26T11:27:40.020Z,3.67
2019-06-26T11:32:44.065Z,3.65
2019-06-26T11:37:47.782Z,3.22
2019-06-26T11:42:51.478Z,3.52
2019-06-26T11:47:55.262Z,3.75
2019-06-26T11:52:59.765Z,3.45
2019-06-26T11:58:03.669Z,3.67
2019-06-26T12:03:07.611Z,4.17
2019-06-26T12:08:11.477Z,3.58
2019-06-26T12:13:15.448Z,3.65
2019-06-26T12:18:19.340Z,3.83
2019-06-26T12:23:23.117Z,3.70
2019-06-26T12:28:26.777Z,3.80
2019-06-26T12:33:30.424Z,3.42
2019-06-26T12:38:34.350Z,3.50
2019-06-26T12:43:38.031Z,3.42
2019-06-26T12:48:41.697Z,3.95
2019-06-26T12:53:45.413Z,3.87
2019-06-26T12:58:49.170Z,4.08
2019-06-26T13:03:53.086Z,3.77
2019-06-26T13:08:56.776Z,3.60
2019-06-26T13:14:03.064Z,3.87
2019-06-26T13:19:05.989Z,4.05
2019-06-26T13:24:09.674Z,3.70
2019-06-26T13:29:13.430Z,3.80
2019-06-26T13:34:17.351Z,3.70
2019-06-26T13:39:21.053Z,3.50
2019-06-26T13:44:24.801Z,3.33
2019-06-26T13:49:28.479Z,3.40
2019-06-26T13:54:32.193Z,3.40
2019-06-26T13:59:35.908Z,3.52
2019-06-26T14:04:39.597Z,3.50
2019-06-26T14:09:43.310Z,4.03
2019-06-26T14:14:57.215Z,3.12
2019-06-26T14:19:52.344Z,3.30
2019-06-26T14:24:56.049Z,3.55
2019-06-26T14:29:59.730Z,3.80
2019-06-26T14:35:03.834Z,3.52
2019-06-26T14:40:07.930Z,3.77
2019-06-26T14:45:12.070Z,3.52
2019-06-26T14:50:16.525Z,3.83
2019-06-26T14:55:20.743Z,3.58
2019-06-26T15:00:24.949Z,3.27
2019-06-26T15:05:28.589Z,3.67
2019-06-26T15:10:32.586Z,3.50
2019-06-26T15:15:36.281Z,3.20
2019-06-26T15:20:40.265Z,3.77
2019-06-26T15:25:44.018Z,3.80
2019-06-26T15:30:47.697Z,4.00
2019-06-26T15:35:51.634Z,3.27
2019-06-26T15:40:55.317Z,3.30
2019-06-26T15:45:59.220Z,3.95
2019-06-26T15:51:02.993Z,3.92
2019-06-26T15:56:06.780Z,4.15
2019-06-26T16:01:10.454Z,4.15
2019-06-26T16:06:14.259Z,4.15
2019-06-26T16:11:17.900Z,4.65
2019-06-26T16:16:22.146Z,4.90
2019-06-26T16:21:25.810Z,4.33
2019-06-26T16:26:29.522Z,4.40
2019-06-26T16:31:33.200Z,4.55
2019-06-26T16:36:36.929Z,4.25
2019-06-26T16:41:40.767Z,4.40
2019-06-26T16:46:44.578Z,4.80
2019-06-26T16:51:48.330Z,4.75
2019-06-26T16:56:52.156Z,4.60
2019-06-26T17:01:56.067Z,4.90
2019-06-26T17:06:59.922Z,4.47
2019-06-26T17:12:03.805Z,5.00
2019-06-26T17:17:07.563Z,6.10
2019-06-26T17:22:11.283Z,5.33
2019-06-26T17:27:15.271Z,4.92
2019-06-26T17:32:18.939Z,4.58
2019-06-26T17:37:22.602Z,4.60
2019-06-26T17:42:26.506Z,4.83
2019-06-26T17:47:30.759Z,4.95
2019-06-26T17:52:38.103Z,5.30
2019-06-26T17:57:40.198Z,5.12
2019-06-26T18:02:44.265Z,4.78
2019-06-26T18:07:48.029Z,4.87
2019-06-26T18:12:51.759Z,4.90
2019-06-26T18:17:55.590Z,4.62
2019-06-26T18:23:07.162Z,5.60
2019-06-26T18:28:05.098Z,5.78
2019-06-26T18:33:09.033Z,5.33
2019-06-26T18:38:12.805Z,6.40
2019-06-26T18:43:16.660Z,6.00
2019-06-26T18:48:20.388Z,5.78
2019-06-26T18:53:24.058Z,5.65
2019-06-26T18:58:30.762Z,5.30
2019-06-26T19:03:33.347Z,5.85
2019-06-26T19:08:37.149Z,5.70
2019-06-26T19:13:40.850Z,5.97
2019-06-26T19:18:44.567Z,5.37
2019-06-26T19:23:48.336Z,5.17
2019-06-26T19:28:52.057Z,5.72
2019-06-26T19:33:55.732Z,5.28
2019-06-26T19:38:59.674Z,5.20
2019-06-26T19:44:04.515Z,5.30
2019-06-26T19:49:08.302Z,5.72
2019-06-26T19:54:26.126Z,5.42
2019-06-26T19:59:17.409Z,4.87
2019-06-26T20:04:21.227Z,5.05
2019-06-26T20:09:24.914Z,5.28
2019-06-26T20:14:28.674Z,5.15
2019-06-26T20:19:32.361Z,5.67
2019-06-26T20:24:44.231Z,5.53
2019-06-26T20:29:41.898Z,5.55
2019-06-26T20:34:45.823Z,5.20
2019-06-26T20:39:50.049Z,5.42
2019-06-26T20:50:32.689Z,6.53
2019-06-26T20:55:36.384Z,6.58
2019-06-26T21:00:40.112Z,6.00
2019-06-26T21:05:43.786Z,5.58
2019-06-26T21:10:47.497Z,5.60
2019-06-26T21:15:53.051Z,6.08
2019-06-26T21:20:56.886Z,5.90
2019-06-26T21:26:00.853Z,5.67
2019-06-26T21:31:04.607Z,5.80
2019-06-26T21:36:08.406Z,5.53
2019-06-26T21:41:12.170Z,5.33
2019-06-26T21:46:15.970Z,5.47
2019-06-26T21:51:19.689Z,6.15
2019-06-26T21:56:23.419Z,5.60
2019-06-26T22:01:27.224Z,5.65
2019-06-26T22:06:31.996Z,5.45
2019-06-26T22:11:35.995Z,5.33
2019-06-26T22:16:40.524Z,5.83
2019-06-26T22:21:44.254Z,5.85
2019-06-26T22:26:48.324Z,5.37
2019-06-26T22:31:52.043Z,6.08
2019-06-26T22:36:55.767Z,5.03
2019-06-26T22:41:59.803Z,5.03
2019-06-26T22:47:03.775Z,5.35
2019-06-26T22:52:07.701Z,5.40
2019-06-26T22:57:11.930Z,4.95
2019-06-26T23:02:15.652Z,5.05
2019-06-26T23:07:19.374Z,4.95
2019-06-26T23:12:23.407Z,4.97
2019-06-26T23:17:27.733Z,5.53
2019-06-26T23:22:31.738Z,5.28
2019-06-26T23:27:35.431Z,4.75
2019-06-26T23:32:42.512Z,4.20
2019-06-26T23:37:46.397Z,4.50
2019-06-26T23:42:50.558Z,4.03
2019-06-26T23:47:54.301Z,4.37
2019-06-26T23:52:59.162Z,4.03
2019-06-26T23:58:05.918Z,3.70
